createdAt,value
2023-03-17T00:00:57.304Z,101364.84
2023-03-17T00:04:00.124Z,101361.25
2023-03-17T00:07:02.732Z,101361.94
2023-03-17T00:10:08.636Z,101365.97
2023-03-17T00:13:12.249Z,101364.28
2023-03-17T00:16:17.710Z,101369.53
2023-03-17T00:19:30.048Z,101359.13
2023-03-17T00:22:33.678Z,101360.84
2023-03-17T00:25:36.243Z,101362.53
2023-03-17T00:28:39.457Z,101358.09
2023-03-17T00:31:45.009Z,101356.50
2023-03-17T00:34:47.819Z,101357.06
2023-03-17T00:37:55.477Z,101351.00
2023-03-17T00:40:59.357Z,101348.44
2023-03-17T00:44:01.880Z,101340.56
2023-03-17T00:47:04.657Z,101342.91
2023-03-17T00:50:10.406Z,101346.91
2023-03-17T00:53:19.025Z,101350.19
2023-03-17T00:56:21.543Z,101350.88
2023-03-17T00:59:29.745Z,101343.78
2023-03-17T01:02:32.340Z,101339.69
2023-03-17T01:05:35.203Z,101342.16
2023-03-17T01:08:38.700Z,101352.25
2023-03-17T01:11:44.132Z,101347.78
2023-03-17T01:14:57.474Z,101339.03
2023-03-17T01:18:01.547Z,101337.34
2023-03-17T01:21:05.019Z,101346.75
2023-03-17T01:24:08.313Z,101343.09
2023-03-17T01:27:11.455Z,101344.56
2023-03-17T01:30:20.634Z,101341.87
2023-03-17T01:33:22.967Z,101349.28
2023-03-17T01:36:26.188Z,101347.41
2023-03-17T01:39:28.652Z,101347.22
2023-03-17T01:42:31.654Z,101342.31
2023-03-17T01:45:52.750Z,101349.59
2023-03-17T01:48:55.551Z,101347.59
2023-03-17T01:52:18.213Z,101355.78
2023-03-17T01:55:21.418Z,101352.31
2023-03-17T01:58:25.978Z,101339.31
2023-03-17T02:01:32.041Z,101337.63
2023-03-17T02:04:35.092Z,101342.34
2023-03-17T02:07:37.766Z,101339.97
2023-03-17T02:10:41.098Z,101345.00
2023-03-17T02:13:44.679Z,101353.31
2023-03-17T02:16:49.462Z,101362.44
2023-03-17T02:19:52.121Z,101359.72
2023-03-17T02:22:55.585Z,101378.41
2023-03-17T02:25:58.119Z,101381.53
2023-03-17T02:29:01.568Z,101386.53
2023-03-17T02:32:05.520Z,101393.28
2023-03-17T02:35:09.736Z,101395.63
2023-03-17T02:38:12.514Z,101393.56
2023-03-17T02:41:15.241Z,101390.09
2023-03-17T02:44:17.937Z,101384.06
2023-03-17T02:47:20.728Z,101380.88
2023-03-17T02:50:24.805Z,101388.31
2023-03-17T02:53:27.498Z,101380.31
2023-03-17T02:56:30.194Z,101373.50
2023-03-17T02:59:32.952Z,101374.16
2023-03-17T03:02:35.542Z,101384.16
2023-03-17T03:05:38.236Z,101386.41
2023-03-17T03:08:40.736Z,101393.69
2023-03-17T03:11:43.817Z,101390.16
2023-03-17T03:14:46.169Z,101386.03
2023-03-17T03:17:48.805Z,101387.81
2023-03-17T03:20:51.377Z,101386.91
2023-03-17T03:23:54.073Z,101386.88
2023-03-17T03:26:56.566Z,101397.84
2023-03-17T03:29:59.126Z,101392.38
2023-03-17T03:33:01.767Z,101386.59
2023-03-17T03:36:04.486Z,101396.44
2023-03-17T03:39:08.063Z,101395.47
2023-03-17T03:42:10.818Z,101389.28
2023-03-17T03:45:13.206Z,101385.69
2023-03-17T03:48:16.234Z,101383.91
2023-03-17T03:51:18.949Z,101389.25
2023-03-17T03:54:21.582Z,101383.22
2023-03-17T03:57:24.201Z,101382.22
2023-03-17T04:00:27.324Z,101380.88
2023-03-17T04:03:30.060Z,101385.22
2023-03-17T04:06:32.614Z,101376.56
2023-03-17T04:09:35.542Z,101378.97
2023-03-17T04:12:39.291Z,101377.38
2023-03-17T04:15:42.550Z,101375.59
2023-03-17T04:18:45.014Z,101371.94
2023-03-17T04:21:48.677Z,101370.94
2023-03-17T04:24:51.441Z,101380.09
2023-03-17T04:27:54.078Z,101380.09
2023-03-17T04:30:56.844Z,101375.09
2023-03-17T04:33:59.502Z,101384.19
2023-03-17T04:37:02.501Z,101389.87
2023-03-17T04:40:08.373Z,101378.09
2023-03-17T04:43:10.730Z,101378.31
2023-03-17T04:46:13.643Z,101383.31
2023-03-17T04:49:16.435Z,101381.75
2023-03-17T04:52:19.521Z,101392.53
2023-03-17T04:55:21.892Z,101391.69
2023-03-17T04:58:30.808Z,101406.13
2023-03-17T05:01:33.554Z,101408.31
2023-03-17T05:04:36.381Z,101400.69
2023-03-17T05:07:38.748Z,101399.81
2023-03-17T05:10:41.630Z,101402.34
2023-03-17T05:13:44.189Z,101405.88
2023-03-17T05:16:47.521Z,101411.28
2023-03-17T05:19:49.888Z,101394.56
2023-03-17T05:22:53.174Z,101404.59
2023-03-17T05:25:55.804Z,101402.97
2023-03-17T05:28:58.388Z,101409.94
2023-03-17T05:32:01.191Z,101406.81
2023-03-17T05:35:03.976Z,101418.16
2023-03-17T05:38:06.937Z,101414.19
2023-03-17T05:41:10.643Z,101419.75
2023-03-17T05:44:13.553Z,101424.31
2023-03-17T05:47:16.373Z,101421.16
2023-03-17T05:50:18.792Z,101418.31
2023-03-17T05:53:22.363Z,101409.09
2023-03-17T05:56:26.587Z,101406.91
2023-03-17T05:59:29.790Z,101420.88
2023-03-17T06:02:33.305Z,101417.88
2023-03-17T06:05:36.713Z,101431.22
2023-03-17T06:08:39.110Z,101424.22
2023-03-17T06:11:41.870Z,101406.34
2023-03-17T06:14:44.185Z,101408.12
2023-03-17T06:17:47.118Z,101406.66
2023-03-17T06:20:49.457Z,101407.34
2023-03-17T06:23:52.133Z,101401.47
2023-03-17T06:26:54.636Z,101416.13
2023-03-17T06:29:57.582Z,101421.28
2023-03-17T06:33:00.453Z,101414.03
2023-03-17T06:36:03.393Z,101417.44
2023-03-17T06:39:06.269Z,101427.22
2023-03-17T06:42:09.011Z,101417.00
2023-03-17T06:45:12.173Z,101424.88
2023-03-17T06:48:14.827Z,101420.28
2023-03-17T06:51:17.203Z,101426.81
2023-03-17T06:54:21.390Z,101428.94
2023-03-17T06:57:23.769Z,101427.09
2023-03-17T07:00:27.586Z,101426.25
2023-03-17T07:03:31.178Z,101435.69
2023-03-17T07:06:33.856Z,101439.28
2023-03-17T07:09:36.277Z,101439.50
2023-03-17T07:12:39.330Z,101447.44
2023-03-17T07:15:42.779Z,101439.63
2023-03-17T07:18:46.217Z,101449.22
2023-03-17T07:21:48.743Z,101451.44
2023-03-17T07:24:52.655Z,101458.03
2023-03-17T07:27:55.104Z,101450.69
2023-03-17T07:30:58.184Z,101456.38
2023-03-17T07:34:00.666Z,101453.00
2023-03-17T07:37:03.523Z,101451.97
2023-03-17T07:40:06.517Z,101449.47
2023-03-17T07:43:09.170Z,101444.53
2023-03-17T07:46:12.827Z,101456.12
2023-03-17T07:49:15.630Z,101446.03
2023-03-17T07:52:18.704Z,101453.31
2023-03-17T07:55:21.401Z,101455.28
2023-03-17T07:58:24.326Z,101443.50
2023-03-17T08:01:27.843Z,101454.50
2023-03-17T08:04:30.753Z,101449.75
2023-03-17T08:07:33.362Z,101445.41
2023-03-17T08:10:36.255Z,101438.91
2023-03-17T08:13:38.677Z,101441.84
2023-03-17T08:16:41.423Z,101431.38
2023-03-17T08:19:44.574Z,101432.47
2023-03-17T08:22:47.248Z,101425.50
2023-03-17T08:25:49.595Z,101436.25
2023-03-17T08:28:52.582Z,101425.50
2023-03-17T08:31:56.008Z,101424.22
2023-03-17T08:34:58.781Z,101428.66
2023-03-17T08:38:01.394Z,101416.37
2023-03-17T08:41:06.363Z,101419.94
2023-03-17T08:44:09.409Z,101424.63
2023-03-17T08:47:12.088Z,101424.84
2023-03-17T08:50:19.003Z,101412.19
2023-03-17T08:53:22.066Z,101414.13
2023-03-17T08:56:24.762Z,101415.03
2023-03-17T08:59:27.724Z,101421.94
2023-03-17T09:02:30.710Z,101424.38
2023-03-17T09:05:35.616Z,101429.22
2023-03-17T09:08:44.530Z,101417.44
2023-03-17T09:11:47.254Z,101423.22
2023-03-17T09:14:50.517Z,101424.81
2023-03-17T09:17:53.975Z,101430.37
2023-03-17T09:20:56.496Z,101423.97
2023-03-17T09:24:01.791Z,101420.34
2023-03-17T09:27:04.901Z,101417.00
2023-03-17T09:30:09.704Z,101415.12
2023-03-17T09:33:13.510Z,101413.47
2023-03-17T09:36:16.288Z,101415.06
2023-03-17T09:39:19.004Z,101419.91
2023-03-17T09:42:38.627Z,101412.47
2023-03-17T09:45:43.556Z,101412.31
2023-03-17T09:48:46.909Z,101401.78
2023-03-17T09:51:50.071Z,101397.94
2023-03-17T09:54:52.828Z,101409.84
2023-03-17T09:57:57.061Z,101403.69
2023-03-17T10:01:03.209Z,101390.84
2023-03-17T10:04:06.483Z,101389.28
2023-03-17T10:07:11.353Z,101387.28
2023-03-17T10:10:15.460Z,101373.16
2023-03-17T10:13:33.116Z,101376.06
2023-03-17T10:16:42.225Z,101378.56
2023-03-17T10:19:47.638Z,101381.34
2023-03-17T10:22:58.117Z,101384.06
2023-03-17T10:26:19.472Z,101374.97
2023-03-17T10:29:23.987Z,101374.97
2023-03-17T10:32:26.756Z,101364.31
2023-03-17T10:35:30.453Z,101356.59
2023-03-17T10:38:33.707Z,101353.22
2023-03-17T10:41:39.020Z,101348.63
2023-03-17T10:44:48.606Z,101339.16
2023-03-17T10:47:51.262Z,101339.25
2023-03-17T10:50:56.371Z,101345.22
2023-03-17T10:54:00.015Z,101344.41
2023-03-17T10:57:03.712Z,101339.59
2023-03-17T11:00:14.479Z,101338.94
2023-03-17T11:03:21.369Z,101336.97
2023-03-17T11:06:34.012Z,101329.63
2023-03-17T11:09:37.755Z,101333.78
2023-03-17T11:12:41.054Z,101325.50
2023-03-17T11:15:46.709Z,101309.06
2023-03-17T11:18:52.735Z,101309.47
2023-03-17T11:22:04.939Z,101309.72
2023-03-17T11:25:19.645Z,101308.13
2023-03-17T11:28:25.001Z,101306.59
2023-03-17T11:32:00.000Z,101305.22
2023-03-17T11:35:21.117Z,101287.94
2023-03-17T11:38:26.439Z,101289.94
2023-03-17T11:41:32.858Z,101285.13
2023-03-17T11:44:38.648Z,101271.00
2023-03-17T11:47:41.863Z,101282.88
2023-03-17T11:51:03.114Z,101275.84
2023-03-17T11:54:24.760Z,101253.72
2023-03-17T11:57:49.071Z,101244.84
2023-03-17T12:00:54.113Z,101246.41
2023-03-17T12:04:16.435Z,101241.44
2023-03-17T12:07:39.011Z,101245.41
2023-03-17T12:11:01.955Z,101233.50
2023-03-17T12:14:06.318Z,101217.41
2023-03-17T12:17:19.026Z,101206.13
2023-03-17T12:20:26.349Z,101208.44
2023-03-17T12:23:34.437Z,101214.00
2023-03-17T12:26:38.885Z,101211.50
2023-03-17T12:29:43.124Z,101202.53
2023-03-17T12:32:53.448Z,101209.41
2023-03-17T12:35:56.959Z,101202.13
2023-03-17T12:39:05.511Z,101195.97
2023-03-17T12:42:14.201Z,101190.28
2023-03-17T12:45:23.790Z,101184.69
2023-03-17T12:48:46.061Z,101180.06
2023-03-17T12:52:07.182Z,101172.41
2023-03-17T12:55:13.604Z,101179.28
2023-03-17T12:58:16.328Z,101171.06
2023-03-17T13:01:19.020Z,101176.91
2023-03-17T13:04:27.743Z,101171.75
2023-03-17T13:07:37.873Z,101174.81
2023-03-17T13:10:43.876Z,101173.47
2023-03-17T13:13:55.185Z,101162.66
2023-03-17T13:17:27.621Z,101150.50
2023-03-17T13:20:38.182Z,101154.44
2023-03-17T13:23:41.691Z,101156.94
2023-03-17T13:26:55.052Z,101146.44
2023-03-17T13:29:58.581Z,101141.47
2023-03-17T13:33:10.450Z,101142.81
2023-03-17T13:36:26.463Z,101144.59
2023-03-17T13:39:32.351Z,101152.53
2023-03-17T13:42:34.675Z,101143.09
2023-03-17T13:45:37.528Z,101145.22
2023-03-17T13:48:40.642Z,101147.38
2023-03-17T13:51:56.522Z,101140.72
2023-03-17T13:55:23.573Z,101142.81
2023-03-17T13:58:33.243Z,101141.28
2023-03-17T14:01:39.045Z,101135.44
2023-03-17T14:04:50.185Z,101136.25
2023-03-17T14:08:00.176Z,101130.12
2023-03-17T14:11:06.627Z,101125.44
2023-03-17T14:14:15.266Z,101120.00
2023-03-17T14:17:28.911Z,101116.47
2023-03-17T14:20:31.633Z,101106.91
2023-03-17T14:23:37.088Z,101100.78
2023-03-17T14:26:39.559Z,101089.56
2023-03-17T14:29:42.293Z,101095.97
2023-03-17T14:32:49.051Z,101095.06
2023-03-17T14:35:52.817Z,101091.09
2023-03-17T14:38:56.128Z,101087.38
2023-03-17T14:42:03.459Z,101085.03
2023-03-17T14:45:07.281Z,101080.75
2023-03-17T14:48:14.290Z,101070.75
2023-03-17T14:51:32.285Z,101069.72
2023-03-17T14:54:35.856Z,101065.50
2023-03-17T14:57:38.707Z,101062.31
2023-03-17T15:00:46.003Z,101053.72
2023-03-17T15:03:53.891Z,101045.72
2023-03-17T15:06:58.229Z,101047.97
2023-03-17T15:10:02.203Z,101046.34
2023-03-17T15:13:06.076Z,101041.78
2023-03-17T15:16:16.912Z,101039.56
2023-03-17T15:19:22.488Z,101028.69
2023-03-17T15:22:27.936Z,101026.81
2023-03-17T15:25:36.990Z,101025.34
2023-03-17T15:28:39.852Z,101024.59
2023-03-17T15:31:42.720Z,101022.94
2023-03-17T15:34:45.523Z,101009.47
2023-03-17T15:37:48.598Z,101012.25
2023-03-17T15:40:51.010Z,101014.19
2023-03-17T15:43:53.996Z,101016.22
2023-03-17T15:46:56.361Z,101020.81
2023-03-17T15:50:06.873Z,101009.72
2023-03-17T15:53:11.859Z,101007.44
2023-03-17T15:56:15.820Z,101006.72
2023-03-17T15:59:18.324Z,101010.41
2023-03-17T16:02:20.932Z,101008.94
2023-03-17T16:05:25.043Z,101003.88
2023-03-17T16:08:28.918Z,100999.94
2023-03-17T16:11:31.830Z,101005.25
2023-03-17T16:14:34.223Z,101005.41
2023-03-17T16:17:36.870Z,101005.41
2023-03-17T16:20:52.275Z,101006.50
2023-03-17T16:23:55.050Z,101013.53
2023-03-17T16:26:57.668Z,101012.84
2023-03-17T16:30:00.656Z,101017.25
2023-03-17T16:33:08.804Z,101014.62
2023-03-17T16:36:16.008Z,101017.53
2023-03-17T16:39:19.982Z,101010.16
2023-03-17T16:42:23.264Z,101022.28
2023-03-17T16:45:27.688Z,101017.91
2023-03-17T16:48:31.162Z,101022.53
2023-03-17T16:51:33.494Z,101017.69
2023-03-17T16:54:36.161Z,101017.00
2023-03-17T16:57:38.953Z,101018.81
2023-03-17T17:00:41.843Z,101021.53
2023-03-17T17:03:44.324Z,101025.09
2023-03-17T17:06:47.454Z,101027.50
2023-03-17T17:09:50.269Z,101023.44
2023-03-17T17:12:53.494Z,101032.03
2023-03-17T17:15:56.270Z,101036.16
2023-03-17T17:18:59.336Z,101021.38
2023-03-17T17:22:01.784Z,101025.81
2023-03-17T17:25:04.650Z,101026.91
2023-03-17T17:28:07.243Z,101026.91
2023-03-17T17:31:10.712Z,101027.88
2023-03-17T17:34:13.368Z,101024.59
2023-03-17T17:37:16.640Z,101028.88
2023-03-17T17:40:20.149Z,101027.34
2023-03-17T17:43:24.433Z,101027.44
2023-03-17T17:46:26.818Z,101026.69
2023-03-17T17:49:29.646Z,101026.81
2023-03-17T17:52:32.696Z,101033.84
2023-03-17T17:55:35.415Z,101031.28
2023-03-17T17:58:37.995Z,101033.97
2023-03-17T18:01:42.711Z,101035.69
2023-03-17T18:04:45.465Z,101021.84
2023-03-17T18:07:47.964Z,101028.78
2023-03-17T18:10:52.116Z,101033.91
2023-03-17T18:13:54.708Z,101033.00
2023-03-17T18:16:57.325Z,101041.78
2023-03-17T18:19:59.576Z,101036.75
2023-03-17T18:23:02.353Z,101039.38
2023-03-17T18:26:06.075Z,101029.00
2023-03-17T18:29:09.594Z,101026.47
2023-03-17T18:32:13.131Z,101030.59
2023-03-17T18:35:17.723Z,101028.91
2023-03-17T18:38:20.696Z,101034.94
2023-03-17T18:41:24.297Z,101029.97
2023-03-17T18:44:26.685Z,101036.87
2023-03-17T18:47:29.473Z,101036.97
2023-03-17T18:50:32.083Z,101046.53
2023-03-17T18:53:35.475Z,101037.91
2023-03-17T18:56:37.882Z,101042.22
2023-03-17T18:59:40.534Z,101038.88
2023-03-17T19:02:42.964Z,101039.78
2023-03-17T19:05:45.617Z,101040.66
2023-03-17T19:08:48.138Z,101034.63
2023-03-17T19:11:51.337Z,101037.19
2023-03-17T19:14:53.724Z,101036.34
2023-03-17T19:17:56.365Z,101033.75
2023-03-17T19:20:58.789Z,101035.50
2023-03-17T19:24:02.089Z,101037.22
2023-03-17T19:27:04.740Z,101031.19
2023-03-17T19:30:07.705Z,101035.47
2023-03-17T19:33:10.309Z,101032.03
2023-03-17T19:36:13.170Z,101031.22
2023-03-17T19:39:16.527Z,101029.50
2023-03-17T19:42:19.406Z,101038.13
2023-03-17T19:45:22.034Z,101027.00
2023-03-17T19:48:25.418Z,101029.59
2023-03-17T19:51:28.094Z,101037.34
2023-03-17T19:54:30.812Z,101031.31
2023-03-17T19:57:33.132Z,101021.00
2023-03-17T20:00:35.927Z,101019.28
2023-03-17T20:03:42.423Z,101014.97
2023-03-17T20:06:45.364Z,101015.84
2023-03-17T20:09:48.693Z,101009.84
2023-03-17T20:12:51.110Z,101009.81
2023-03-17T20:15:54.411Z,101005.50
2023-03-17T20:18:57.254Z,101005.53
2023-03-17T20:21:59.957Z,101013.25
2023-03-17T20:25:02.814Z,101001.22
2023-03-17T20:28:05.574Z,101000.31
2023-03-17T20:31:10.656Z,101004.59
2023-03-17T20:34:13.786Z,101005.44
2023-03-17T20:37:16.478Z,101005.50
2023-03-17T20:40:19.189Z,101002.91
2023-03-17T20:43:21.895Z,100999.47
2023-03-17T20:46:25.335Z,101002.91
2023-03-17T20:49:27.810Z,101003.75
2023-03-17T20:52:30.589Z,101010.63
2023-03-17T20:55:32.981Z,101007.13
2023-03-17T20:58:35.948Z,101002.00
2023-03-17T21:01:39.106Z,101000.22
2023-03-17T21:04:46.549Z,101001.03
2023-03-17T21:07:49.191Z,100999.22
2023-03-17T21:10:51.864Z,101004.28
2023-03-17T21:13:54.279Z,100994.72
2023-03-17T21:16:57.817Z,100992.97
2023-03-17T21:20:00.821Z,100993.81
2023-03-17T21:23:05.603Z,100992.91
2023-03-17T21:26:09.222Z,100989.41
2023-03-17T21:29:12.091Z,100989.41
2023-03-17T21:32:14.913Z,100989.34
2023-03-17T21:35:18.213Z,100981.56
2023-03-17T21:38:20.608Z,100978.09
2023-03-17T21:41:23.328Z,100977.19
2023-03-17T21:44:25.679Z,100978.91
2023-03-17T21:47:30.018Z,100975.44
2023-03-17T21:50:33.589Z,100972.94
2023-03-17T21:53:37.191Z,100974.59
2023-03-17T21:56:41.292Z,100977.09
2023-03-17T21:59:43.914Z,100989.84
2023-03-17T22:02:46.717Z,100991.72
2023-03-17T22:05:50.812Z,100994.19
2023-03-17T22:08:53.481Z,100999.19
2023-03-17T22:11:56.339Z,100997.41
2023-03-17T22:14:58.798Z,100991.38
2023-03-17T22:18:01.497Z,100993.97
2023-03-17T22:21:04.766Z,100996.50
2023-03-17T22:24:07.389Z,100999.06
2023-03-17T22:27:09.741Z,100998.28
2023-03-17T22:30:12.566Z,100994.03
2023-03-17T22:33:15.485Z,100984.62
2023-03-17T22:36:18.245Z,100980.41
2023-03-17T22:39:21.073Z,100987.19
2023-03-17T22:42:24.135Z,100987.97
2023-03-17T22:45:26.583Z,100987.09
2023-03-17T22:48:29.291Z,100989.63
2023-03-17T22:51:32.305Z,100982.72
2023-03-17T22:54:34.847Z,100982.63
2023-03-17T22:57:37.359Z,100979.28
2023-03-17T23:00:40.532Z,100983.72
2023-03-17T23:03:43.500Z,100976.91
2023-03-17T23:06:46.634Z,100982.97
2023-03-17T23:09:49.039Z,100981.28
2023-03-17T23:12:52.243Z,100982.03
2023-03-17T23:15:55.757Z,100968.28
2023-03-17T23:18:58.920Z,100969.97
2023-03-17T23:22:01.909Z,100971.69
2023-03-17T23:25:05.416Z,100975.13
2023-03-17T23:28:08.111Z,100974.38
2023-03-17T23:31:11.956Z,100978.63
2023-03-17T23:34:18.847Z,100966.47
2023-03-17T23:37:21.726Z,100968.13
2023-03-17T23:40:24.001Z,100961.25
2023-03-17T23:43:27.444Z,100969.72
2023-03-17T23:46:29.949Z,100970.44
2023-03-17T23:49:32.724Z,100979.00
2023-03-17T23:52:36.291Z,100973.09
2023-03-17T23:55:39.358Z,100963.69
2023-03-17T23:58:43.374Z,100961.84
